KTEB/TEB METAR and TAF weather

Enter ICAO airport designator
Station Type Date Time Source
KTEB METAR 2019/10/14 04:51 UTC NOAA

KTEB 140451Z 00000KT 10SM OVC032 16/12 A3000 RMK AO2 SLP157 T01560117 402440094 $


Station Type Date Time Source
KTEB Decoded METAR 2019/10/14 04:51 UTC NOAA

TETERBORO AIRPORT, NJ, United States (KTEB) 40-52N 74-03W 7M
Oct 14, 2019 - 12:51 AM EDT / 2019.10.14 0451 UTC
Wind: Calm:0
Visibility: 10 mile(s):0
Sky conditions: overcast
Temperature: 60.1 F (15.6 C)
Dew Point: 53.1 F (11.7 C)
Relative Humidity: 77%
Pressure (altimeter): 30 in. Hg (1015 hPa)
ob: KTEB 140451Z 00000KT 10SM OVC032 16/12 A3000 RMK AO2 SLP157 T01560117 402440094
cycle: 5

Station Type Date Time Source
KTEB TAF 2019/10/14 06:34 UTC NOAA

TAF KTEB 140532Z 1406/1512 18003KT P6SM SCT015 BKN030
TEMPO 1408/1412 BKN012
FM141400 26005KT P6SM FEW030
FM141800 24008KT P6SM SKC
FM142300 28006KT P6SM SKC
FM150200 32006KT P6SM SKC

Example: see airport list